RRS weather

Røros Airport
Røros, Sør-Trøndelag, Norway

Public forecast

Using degrees Celsius for public forecast. Weather courtesy of forecast.io.

METAR (pilot weather report)

Retrieved 2019/05/20 17:20 UTC (36 minutes ago):

ENRO 201720Z 05007KT 360V070 CAVOK 17/06 Q1013

TAF (pilot weather forecast)

Closest forecast is Trondheim Airport Værnes, 54.0 nm (100.0 km) NNW. Retrieved 2019/05/20 12:57 UTC (5 hours ago):

TAF ENVA 201100Z 2012/2112 VRB07KT 9999 FEW030 SCT050 PROB40 TEMPO 2012/2016 27010KT